Time;durP1;ratioP1;P1;durP2;ratioP2;P2;SDS_P1;SDS_P2;PMS_P1;PMS_P2;Temp;Humidity;BMP_temperature;BMP_pressure;BME280_temperature;BME280_humidity;BME280_pressure;Samples;Min_cycle;Max_cycle;Signal;HPM_P1;HPM_P2
2021/12/08 00:00:22;;;;;;;;;;;9.70;53.20;;;;;;6189884;23;19985;-90
2021/12/08 00:02:48;;;;;;;;;;;9.80;53.40;;;;;;6190110;23;19951;-90
2021/12/08 00:05:15;;;;;;;;;;;9.90;53.90;;;;;;6190417;23;19923;-89
2021/12/08 00:07:40;;;;;;;;;;;10.00;53.70;;;;;;6191294;23;19908;-90
2021/12/08 00:10:28;;;;;;;;;;;10.00;53.80;;;;;;6218823;23;19947;-89
2021/12/08 00:13:03;;;;;;;;;;;10.00;53.60;;;;;;6191750;23;19908;-90
2021/12/08 00:15:35;;;;;;;;;;;10.00;53.10;;;;;;6192331;23;20384;-90
2021/12/08 00:18:02;;;;;;;;;;;10.00;52.30;;;;;;6192286;23;19990;-90
2021/12/08 00:20:30;;;;;;;;;;;10.00;52.30;;;;;;6192760;23;20011;-90
2021/12/08 00:22:56;;;;;;;;;;;10.10;52.80;;;;;;6219193;23;19908;-90
2021/12/08 00:25:21;;;;;;;;;;;10.20;52.80;;;;;;6219154;23;19927;-89
2021/12/08 00:27:47;;;;;;;;;;;10.30;52.90;;;;;;6190938;23;19912;-90
2021/12/08 00:30:12;;;;;;;;;;;10.30;51.90;;;;;;6191382;23;19915;-89
2021/12/08 00:32:38;;;;;;;;;;;10.20;51.80;;;;;;6218136;23;19912;-89
2021/12/08 00:35:05;;;;;;;;;;;10.30;51.90;;;;;;6190388;23;19914;-90
2021/12/08 00:37:30;;;;;;;;;;;10.40;51.60;;;;;;6190920;23;19920;-90
2021/12/08 00:39:56;;;;;;;;;;;10.20;50.80;;;;;;6216399;23;19996;-90
2021/12/08 00:42:21;;;;;;;;;;;10.20;51.70;;;;;;6216970;23;19919;-90
2021/12/08 00:44:47;;;;;;;;;;;10.20;52.70;;;;;;6189368;23;19986;-90
2021/12/08 00:47:12;;;;;;;;;;;10.10;53.40;;;;;;6215929;23;19912;-89
2021/12/08 00:49:39;;;;;;;;;;;10.00;53.30;;;;;;6215118;23;19904;-90
2021/12/08 00:52:05;;;;;;;;;;;10.00;53.50;;;;;;6216619;23;19912;-89
2021/12/08 00:54:31;;;;;;;;;;;10.00;53.60;;;;;;6215190;23;19908;-89
2021/12/08 00:56:57;;;;;;;;;;;10.00;53.30;;;;;;6189357;23;20336;-89
2021/12/08 00:59:23;;;;;;;;;;;10.00;53.90;;;;;;6216071;23;20364;-89
2021/12/08 01:01:48;;;;;;;;;;;10.10;54.40;;;;;;6188586;23;19935;-89
2021/12/08 01:04:15;;;;;;;;;;;10.00;53.40;;;;;;6214171;23;20305;-90
2021/12/08 01:06:41;;;;;;;;;;;10.10;54.20;;;;;;6217902;23;19916;-90
2021/12/08 01:09:07;;;;;;;;;;;10.00;53.50;;;;;;6191668;23;20275;-90
2021/12/08 01:11:32;;;;;;;;;;;10.00;54.20;;;;;;6217424;23;19967;-90
2021/12/08 01:13:58;;;;;;;;;;;9.80;54.30;;;;;;6218466;23;19911;-89
2021/12/08 01:16:24;;;;;;;;;;;9.70;54.70;;;;;;6193149;23;20296;-91
2021/12/08 01:18:52;;;;;;;;;;;9.50;55.10;;;;;;6192963;23;19939;-90
2021/12/08 01:21:18;;;;;;;;;;;9.30;55.80;;;;;;6219801;23;19916;-90
2021/12/08 01:23:44;;;;;;;;;;;9.00;56.80;;;;;;6220051;23;19908;-90
2021/12/08 01:26:10;;;;;;;;;;;8.90;57.70;;;;;;6220321;23;19919;-90
2021/12/08 01:28:36;;;;;;;;;;;8.70;58.30;;;;;;6192718;23;19916;-91
2021/12/08 01:31:02;;;;;;;;;;;8.70;59.10;;;;;;6192834;23;19916;-92
2021/12/08 01:33:30;;;;;;;;;;;8.70;59.20;;;;;;6191965;23;19983;-93
2021/12/08 01:35:55;;;;;;;;;;;8.60;58.70;;;;;;6193429;23;19962;-91
2021/12/08 01:38:22;;;;;;;;;;;8.40;58.70;;;;;;6193734;23;19912;-92
2021/12/08 01:40:48;;;;;;;;;;;8.30;59.20;;;;;;6193289;23;19995;-92
2021/12/08 01:43:24;;;;;;;;;;;8.20;59.90;;;;;;6192938;23;20339;-92
2021/12/08 01:45:57;;;;;;;;;;;8.20;60.20;;;;;;6193798;23;19915;-93
2021/12/08 01:48:23;;;;;;;;;;;8.10;60.50;;;;;;6193299;23;19915;-93
2021/12/08 01:50:50;;;;;;;;;;;8.00;61.40;;;;;;6192474;23;19912;-92
2021/12/08 01:53:15;;;;;;;;;;;8.00;61.30;;;;;;6220012;23;20579;-91
2021/12/08 01:55:41;;;;;;;;;;;8.00;61.70;;;;;;6192491;23;19916;-92
2021/12/08 01:58:08;;;;;;;;;;;8.10;61.80;;;;;;6192969;23;19939;-92
2021/12/08 02:00:36;;;;;;;;;;;8.10;61.80;;;;;;6219225;23;19958;-92
2021/12/08 02:03:02;;;;;;;;;;;8.20;62.00;;;;;;6194846;23;19974;-92
2021/12/08 02:05:28;;;;;;;;;;;8.20;62.20;;;;;;6193615;23;19915;-91
2021/12/08 02:07:54;;;;;;;;;;;8.20;62.20;;;;;;6219183;23;19908;-92
2021/12/08 02:10:20;;;;;;;;;;;8.30;62.30;;;;;;6192292;23;20288;-92
2021/12/08 02:12:46;;;;;;;;;;;8.30;62.30;;;;;;6219130;23;19923;-92
2021/12/08 02:15:13;;;;;;;;;;;8.30;62.20;;;;;;6191998;23;19907;-92
2021/12/08 02:17:39;;;;;;;;;;;8.40;62.30;;;;;;6191892;23;19931;-92
2021/12/08 02:20:07;;;;;;;;;;;8.50;62.30;;;;;;6217193;23;20329;-91
2021/12/08 02:22:32;;;;;;;;;;;8.60;62.20;;;;;;6191675;23;20332;-90
2021/12/08 02:24:58;;;;;;;;;;;8.60;62.20;;;;;;6167365;23;20043;-91
2021/12/08 02:27:23;;;;;;;;;;;8.70;62.10;;;;;;6192097;23;19935;-91
2021/12/08 02:30:02;;;;;;;;;;;8.60;62.00;;;;;;6191600;23;19970;-91
2021/12/08 02:48:52;;;;;;;;;;;8.90;61.30;;;;;;6217607;23;19938;-90
2021/12/08 02:51:20;;;;;;;;;;;9.00;61.50;;;;;;6218694;23;19916;-90
2021/12/08 02:53:47;;;;;;;;;;;9.00;61.30;;;;;;6218473;23;19915;-89
2021/12/08 02:56:13;;;;;;;;;;;9.10;61.30;;;;;;6191029;23;19912;-89
2021/12/08 02:58:39;;;;;;;;;;;9.10;61.40;;;;;;6191840;23;19910;-89
2021/12/08 03:01:05;;;;;;;;;;;9.20;61.40;;;;;;6191983;23;19943;-89
2021/12/08 03:03:30;;;;;;;;;;;9.20;61.40;;;;;;6190937;23;19935;-90
2021/12/08 03:05:56;;;;;;;;;;;9.20;61.30;;;;;;6218122;23;19916;-89
2021/12/08 03:08:22;;;;;;;;;;;9.30;61.40;;;;;;6218367;23;19912;-90
2021/12/08 03:10:50;;;;;;;;;;;9.20;61.30;;;;;;6216686;23;19912;-90
2021/12/08 03:13:16;;;;;;;;;;;9.30;61.20;;;;;;6217097;23;19943;-90
2021/12/08 03:15:42;;;;;;;;;;;9.40;61.30;;;;;;6191758;23;19908;-90
2021/12/08 03:18:08;;;;;;;;;;;9.30;61.30;;;;;;6216958;23;19990;-89
2021/12/08 03:20:41;;;;;;;;;;;9.40;61.20;;;;;;6215936;23;19931;-90
2021/12/08 03:23:08;;;;;;;;;;;9.30;61.30;;;;;;6190549;23;20309;-90
2021/12/08 03:25:40;;;;;;;;;;;9.30;61.30;;;;;;6217092;23;19915;-91
2021/12/08 03:28:15;;;;;;;;;;;9.30;61.50;;;;;;6217627;23;19916;-91
2021/12/08 03:30:54;;;;;;;;;;;9.30;61.50;;;;;;6191613;23;19904;-91
2021/12/08 03:33:19;;;;;;;;;;;9.30;61.60;;;;;;6217870;23;20213;-91
2021/12/08 03:35:45;;;;;;;;;;;9.30;61.70;;;;;;6217250;23;19911;-91
2021/12/08 03:38:10;;;;;;;;;;;9.30;61.80;;;;;;6190860;23;19916;-90
2021/12/08 03:40:36;;;;;;;;;;;9.30;61.80;;;;;;6217529;23;20317;-90
2021/12/08 03:43:01;;;;;;;;;;;9.30;61.80;;;;;;6189883;23;19915;-91
2021/12/08 03:45:33;;;;;;;;;;;9.30;61.70;;;;;;6191353;23;19915;-90
2021/12/08 03:48:03;;;;;;;;;;;9.30;61.80;;;;;;6217474;23;19912;-89
2021/12/08 03:50:34;;;;;;;;;;;9.20;61.70;;;;;;6190905;23;19908;-91
2021/12/08 03:53:00;;;;;;;;;;;9.20;61.70;;;;;;6190507;23;19942;-91
2021/12/08 03:55:25;;;;;;;;;;;9.20;61.60;;;;;;6190611;23;19987;-91
2021/12/08 03:57:51;;;;;;;;;;;9.20;61.70;;;;;;6218281;23;19912;-91
2021/12/08 04:00:18;;;;;;;;;;;9.20;61.70;;;;;;6190473;23;19912;-91
2021/12/08 04:02:44;;;;;;;;;;;9.30;61.60;;;;;;6216762;23;19986;-91
2021/12/08 04:05:10;;;;;;;;;;;9.30;61.60;;;;;;6217196;23;20316;-90
2021/12/08 04:07:42;;;;;;;;;;;9.30;61.20;;;;;;6190928;23;19916;-89
2021/12/08 04:10:15;;;;;;;;;;;9.30;61.60;;;;;;6217900;23;19991;-91
2021/12/08 04:12:41;;;;;;;;;;;9.40;61.50;;;;;;6217230;23;19987;-89
2021/12/08 04:15:07;;;;;;;;;;;9.50;61.40;;;;;;6190442;23;19955;-91
2021/12/08 04:17:35;;;;;;;;;;;9.40;61.40;;;;;;6217507;23;20206;-90
2021/12/08 04:20:05;;;;;;;;;;;9.50;61.00;;;;;;6190342;23;20337;-90
2021/12/08 04:22:33;;;;;;;;;;;9.50;61.30;;;;;;6190896;23;19912;-90
2021/12/08 04:25:00;;;;;;;;;;;9.60;61.20;;;;;;6164891;23;19908;-90
2021/12/08 04:27:27;;;;;;;;;;;9.70;61.20;;;;;;6190364;23;19919;-90
2021/12/08 04:29:53;;;;;;;;;;;9.70;61.20;;;;;;6192508;23;20003;-90
2021/12/08 04:32:21;;;;;;;;;;;9.80;61.20;;;;;;6218958;23;19911;-89
2021/12/08 04:34:48;;;;;;;;;;;9.80;61.10;;;;;;6190541;23;19908;-89
2021/12/08 04:37:24;;;;;;;;;;;9.80;61.00;;;;;;6190203;23;19927;-89
2021/12/08 04:43:02;;;;;;;;;;;9.80;61.00;;;;;;6164017;23;19935;-89
2021/12/08 04:45:38;;;;;;;;;;;10.00;61.10;;;;;;6217091;23;20510;-89
2021/12/08 04:48:31;;;;;;;;;;;10.00;61.10;;;;;;6217221;23;19990;-89
2021/12/08 05:01:30;;;;;;;;;;;10.10;61.10;;;;;;6216673;23;19955;-89
2021/12/08 05:09:04;;;;;;;;;;;10.10;60.80;;;;;;6217734;23;19920;-90
2021/12/08 05:11:32;;;;;;;;;;;10.10;60.80;;;;;;6189704;23;19936;-90
2021/12/08 05:14:02;;;;;;;;;;;10.00;60.50;;;;;;6216349;23;19916;-89
2021/12/08 05:16:31;;;;;;;;;;;10.10;60.60;;;;;;6188801;23;19919;-90
2021/12/08 05:19:02;;;;;;;;;;;10.10;60.60;;;;;;6189372;23;19927;-90
2021/12/08 05:21:35;;;;;;;;;;;10.20;60.80;;;;;;6189688;23;20325;-90
2021/12/08 05:24:04;;;;;;;;;;;10.20;60.80;;;;;;6190042;23;19907;-90
2021/12/08 05:26:35;;;;;;;;;;;10.20;60.70;;;;;;6217118;23;19920;-90
2021/12/08 05:29:03;;;;;;;;;;;10.20;60.40;;;;;;6190432;23;19998;-91
2021/12/08 05:31:30;;;;;;;;;;;10.10;60.50;;;;;;6188701;23;20391;-90
2021/12/08 05:33:57;;;;;;;;;;;10.10;60.60;;;;;;6189203;23;20340;-90
2021/12/08 05:36:22;;;;;;;;;;;10.10;60.40;;;;;;6215489;23;19922;-89
2021/12/08 05:38:48;;;;;;;;;;;10.00;60.40;;;;;;6189212;23;19908;-89
2021/12/08 05:41:19;;;;;;;;;;;10.00;60.40;;;;;;6216118;23;19904;-90
2021/12/08 05:43:45;;;;;;;;;;;10.00;60.50;;;;;;6189903;23;19908;-90
2021/12/08 05:46:11;;;;;;;;;;;10.00;60.70;;;;;;6189900;23;20659;-90
2021/12/08 05:48:36;;;;;;;;;;;9.90;60.60;;;;;;6190429;23;20034;-89
2021/12/08 05:51:05;;;;;;;;;;;10.00;60.80;;;;;;6189577;23;20311;-89
2021/12/08 05:53:31;;;;;;;;;;;10.00;60.50;;;;;;6218819;23;19912;-90
2021/12/08 05:55:57;;;;;;;;;;;10.00;60.70;;;;;;6190509;23;20317;-90
2021/12/08 05:58:23;;;;;;;;;;;10.00;60.40;;;;;;6217707;23;19927;-90
2021/12/08 06:00:51;;;;;;;;;;;10.10;60.60;;;;;;6191468;23;19904;-88
2021/12/08 06:03:17;;;;;;;;;;;10.10;60.60;;;;;;6220060;23;19912;-88
2021/12/08 06:05:44;;;;;;;;;;;10.20;60.70;;;;;;6218561;23;19948;-88
2021/12/08 06:08:10;;;;;;;;;;;10.20;60.40;;;;;;6190966;23;19923;-89
2021/12/08 06:10:37;;;;;;;;;;;10.30;60.50;;;;;;6190991;23;19908;-91
2021/12/08 06:13:03;;;;;;;;;;;10.30;60.40;;;;;;6191337;23;19920;-88
2021/12/08 06:15:28;;;;;;;;;;;10.30;60.60;;;;;;6218312;23;20370;-89
2021/12/08 06:17:54;;;;;;;;;;;10.30;60.20;;;;;;6191604;23;19931;-89
2021/12/08 06:20:20;;;;;;;;;;;10.30;60.20;;;;;;6217664;23;19955;-90
2021/12/08 06:22:47;;;;;;;;;;;10.20;59.60;;;;;;6166082;23;19918;-89
2021/12/08 06:25:13;;;;;;;;;;;10.30;60.00;;;;;;6217919;23;19986;-90
2021/12/08 06:27:39;;;;;;;;;;;10.30;60.30;;;;;;6190583;23;19923;-90
2021/12/08 06:30:07;;;;;;;;;;;10.30;59.80;;;;;;6218204;23;19907;-90
2021/12/08 06:32:33;;;;;;;;;;;10.40;60.30;;;;;;6190914;23;20209;-90
2021/12/08 06:34:59;;;;;;;;;;;10.40;60.30;;;;;;6218404;23;19990;-90
2021/12/08 06:37:30;;;;;;;;;;;10.40;60.50;;;;;;6191951;23;19947;-89
2021/12/08 06:40:07;;;;;;;;;;;10.50;60.80;;;;;;6217815;23;19903;-90
2021/12/08 06:42:34;;;;;;;;;;;10.40;60.50;;;;;;6190687;23;19912;-90
2021/12/08 06:45:02;;;;;;;;;;;10.50;60.70;;;;;;6191261;23;19908;-90
2021/12/08 06:47:29;;;;;;;;;;;10.40;60.60;;;;;;6191183;23;19916;-89
2021/12/08 06:49:56;;;;;;;;;;;10.50;60.40;;;;;;6190839;23;19958;-89
2021/12/08 06:52:28;;;;;;;;;;;10.40;60.30;;;;;;6218466;23;20329;-90
2021/12/08 06:55:15;;;;;;;;;;;10.40;60.20;;;;;;6220109;23;19912;-90
2021/12/08 06:57:44;;;;;;;;;;;10.40;60.50;;;;;;6221421;23;19908;-91
2021/12/08 07:00:22;;;;;;;;;;;10.30;60.30;;;;;;6217747;23;19915;-91
2021/12/08 07:02:58;;;;;;;;;;;10.30;60.50;;;;;;6190204;23;20229;-90
2021/12/08 07:06:02;;;;;;;;;;;10.30;60.50;;;;;;6191007;23;19912;-90
2021/12/08 07:08:19;;;;;;;;;;;10.40;60.60;;;;;;6217751;23;19911;-89
2021/12/08 07:10:46;;;;;;;;;;;10.30;60.60;;;;;;6217802;23;19954;-90
2021/12/08 07:13:14;;;;;;;;;;;10.40;60.60;;;;;;6190303;23;19914;-90
2021/12/08 07:15:45;;;;;;;;;;;10.30;60.50;;;;;;6189749;23;19912;-89
2021/12/08 07:18:13;;;;;;;;;;;10.30;60.30;;;;;;6216611;23;19943;-89
2021/12/08 07:20:46;;;;;;;;;;;10.30;60.20;;;;;;6190137;23;19983;-89
2021/12/08 07:23:27;;;;;;;;;;;10.20;60.30;;;;;;6190201;23;19904;-90
2021/12/08 07:25:58;;;;;;;;;;;10.20;60.20;;;;;;6189726;23;19908;-89
2021/12/08 07:28:24;;;;;;;;;;;10.10;60.30;;;;;;6190029;23;19916;-90
2021/12/08 07:31:01;;;;;;;;;;;10.00;60.50;;;;;;6165716;23;19912;-89
2021/12/08 07:33:27;;;;;;;;;;;10.00;60.30;;;;;;6189333;23;20002;-89
2021/12/08 07:35:54;;;;;;;;;;;9.90;60.70;;;;;;6190027;23;20245;-90
2021/12/08 07:38:22;;;;;;;;;;;9.90;60.60;;;;;;6189918;23;19988;-90
2021/12/08 07:40:52;;;;;;;;;;;10.00;60.90;;;;;;6218010;23;19948;-89
2021/12/08 07:43:20;;;;;;;;;;;10.00;60.90;;;;;;6191193;23;19990;-89
2021/12/08 07:46:18;;;;;;;;;;;10.00;60.90;;;;;;6219195;23;19904;-90
2021/12/08 07:48:47;;;;;;;;;;;10.00;60.90;;;;;;6151659;23;19916;-90
2021/12/08 07:51:15;;;;;;;;;;;10.10;61.00;;;;;;6216766;23;20347;-90
2021/12/08 07:53:42;;;;;;;;;;;10.10;61.00;;;;;;6217284;23;20418;-89
2021/12/08 07:56:09;;;;;;;;;;;10.20;60.80;;;;;;6217484;23;19938;-89
2021/12/08 07:58:36;;;;;;;;;;;10.20;60.80;;;;;;6190897;23;19923;-89
2021/12/08 08:01:08;;;;;;;;;;;10.20;60.80;;;;;;6216578;23;19908;-90
2021/12/08 08:03:34;;;;;;;;;;;10.20;60.90;;;;;;6191188;23;19919;-89
2021/12/08 08:06:02;;;;;;;;;;;10.30;60.90;;;;;;6190245;23;19948;-89
2021/12/08 08:08:31;;;;;;;;;;;10.30;60.90;;;;;;6216833;23;19912;-90
2021/12/08 08:11:02;;;;;;;;;;;10.30;60.80;;;;;;6217051;23;19954;-90
2021/12/08 08:13:28;;;;;;;;;;;10.40;60.80;;;;;;6189872;23;19947;-89
2021/12/08 08:16:04;;;;;;;;;;;10.40;60.70;;;;;;6189786;23;19978;-89
2021/12/08 08:18:31;;;;;;;;;;;10.40;60.80;;;;;;6189857;23;19915;-90
2021/12/08 08:20:58;;;;;;;;;;;10.40;60.80;;;;;;6190756;23;19908;-89
2021/12/08 08:23:25;;;;;;;;;;;10.50;60.60;;;;;;6190651;23;19912;-89
2021/12/08 08:25:53;;;;;;;;;;;10.50;60.70;;;;;;6191146;23;19908;-88
2021/12/08 08:28:19;;;;;;;;;;;10.50;60.60;;;;;;6216781;23;19951;-89
2021/12/08 08:30:54;;;;;;;;;;;10.60;60.90;;;;;;6190225;23;19915;-89
2021/12/08 08:33:20;;;;;;;;;;;10.60;60.80;;;;;;6189397;23;19911;-89
2021/12/08 08:35:51;;;;;;;;;;;10.60;60.60;;;;;;6189736;23;19915;-89
2021/12/08 08:38:28;;;;;;;;;;;10.60;60.50;;;;;;6216835;23;19947;-90
2021/12/08 08:40:55;;;;;;;;;;;10.70;60.50;;;;;;6190451;23;19912;-89
2021/12/08 08:43:21;;;;;;;;;;;10.70;60.60;;;;;;6217045;23;21395;-89
2021/12/08 08:45:52;;;;;;;;;;;10.70;60.40;;;;;;6216141;23;19912;-89
2021/12/08 08:48:26;;;;;;;;;;;10.80;60.50;;;;;;6189443;23;19904;-90
2021/12/08 08:50:53;;;;;;;;;;;10.80;60.70;;;;;;6189034;23;20320;-90
2021/12/08 08:53:20;;;;;;;;;;;10.80;60.90;;;;;;6216721;23;19908;-91
2021/12/08 08:55:51;;;;;;;;;;;10.80;60.70;;;;;;6215925;23;20317;-90
2021/12/08 08:58:18;;;;;;;;;;;10.90;60.80;;;;;;6189164;23;19914;-90
2021/12/08 09:00:53;;;;;;;;;;;10.90;60.30;;;;;;6216554;23;19912;-90
2021/12/08 09:03:21;;;;;;;;;;;10.90;60.40;;;;;;6190553;23;20279;-89
2021/12/08 09:05:51;;;;;;;;;;;11.00;60.40;;;;;;6190007;23;19916;-89
2021/12/08 09:08:17;;;;;;;;;;;10.90;60.20;;;;;;6190395;23;20330;-90
2021/12/08 09:10:48;;;;;;;;;;;10.90;60.30;;;;;;6190395;23;19951;-90
2021/12/08 09:13:16;;;;;;;;;;;11.00;60.40;;;;;;6215925;23;19915;-89
2021/12/08 09:15:45;;;;;;;;;;;11.00;60.20;;;;;;6188702;23;19951;-90
2021/12/08 09:18:19;;;;;;;;;;;11.00;59.90;;;;;;6164432;23;19955;-88
2021/12/08 09:21:00;;;;;;;;;;;11.00;60.20;;;;;;6189555;23;19916;-89
2021/12/08 09:23:33;;;;;;;;;;;11.00;59.90;;;;;;6216751;23;19908;-90
2021/12/08 09:26:03;;;;;;;;;;;11.10;60.00;;;;;;6189870;23;19912;-90
2021/12/08 09:28:34;;;;;;;;;;;11.10;59.90;;;;;;6218744;23;19951;-90
2021/12/08 09:31:02;;;;;;;;;;;11.10;59.60;;;;;;6192005;23;19919;-90
2021/12/08 09:33:39;;;;;;;;;;;11.20;60.10;;;;;;6190028;23;19912;-89
2021/12/08 09:36:26;;;;;;;;;;;11.20;60.00;;;;;;6190659;23;19951;-90
2021/12/08 09:38:57;;;;;;;;;;;11.20;59.50;;;;;;6219229;23;20006;-89
2021/12/08 09:41:27;;;;;;;;;;;11.20;59.60;;;;;;6191725;23;20751;-89
2021/12/08 09:43:56;;;;;;;;;;;11.20;59.60;;;;;;6218609;23;19912;-90
2021/12/08 09:46:24;;;;;;;;;;;11.20;59.80;;;;;;6192082;23;19912;-89
2021/12/08 09:48:50;;;;;;;;;;;11.30;59.40;;;;;;6219996;23;19911;-89
2021/12/08 09:51:18;;;;;;;;;;;11.30;59.50;;;;;;6192426;23;19912;-89
2021/12/08 09:53:44;;;;;;;;;;;11.40;59.70;;;;;;6191257;23;20357;-89
2021/12/08 09:56:10;;;;;;;;;;;11.50;59.60;;;;;;6191489;23;19927;-88
2021/12/08 09:58:37;;;;;;;;;;;11.50;59.00;;;;;;6217953;23;19912;-89
2021/12/08 10:01:04;;;;;;;;;;;11.40;58.50;;;;;;6190866;23;19919;-89
2021/12/08 10:03:30;;;;;;;;;;;11.50;59.00;;;;;;6217133;23;19912;-89
2021/12/08 10:05:55;;;;;;;;;;;11.50;59.00;;;;;;6217629;23;19912;-90
2021/12/08 10:08:21;;;;;;;;;;;11.50;58.60;;;;;;6217254;23;20245;-89
2021/12/08 10:10:47;;;;;;;;;;;11.40;58.40;;;;;;6217944;23;19912;-89
2021/12/08 10:13:13;;;;;;;;;;;11.50;59.00;;;;;;6217459;23;19966;-89
2021/12/08 10:15:39;;;;;;;;;;;11.60;59.10;;;;;;6191299;23;19911;-89
2021/12/08 10:18:05;;;;;;;;;;;11.70;59.30;;;;;;6191097;23;19904;-89
2021/12/08 10:20:33;;;;;;;;;;;11.80;59.40;;;;;;6191044;23;19912;-89
2021/12/08 10:23:10;;;;;;;;;;;12.10;60.80;;;;;;6166556;23;19993;-89
2021/12/08 10:25:38;;;;;;;;;;;12.20;59.90;;;;;;6192011;23;19962;-88
2021/12/08 10:28:05;;;;;;;;;;;12.60;61.00;;;;;;6191590;23;19920;-90
2021/12/08 10:30:32;;;;;;;;;;;12.90;61.10;;;;;;6192365;23;19919;-89
2021/12/08 10:32:59;;;;;;;;;;;13.20;60.70;;;;;;6191679;23;20316;-89
2021/12/08 10:35:44;;;;;;;;;;;13.30;58.20;;;;;;6191285;23;19904;-89
2021/12/08 10:38:11;;;;;;;;;;;13.30;57.20;;;;;;6218472;23;20437;-89
2021/12/08 10:40:37;;;;;;;;;;;13.00;55.00;;;;;;6219176;23;19997;-89
2021/12/08 10:43:12;;;;;;;;;;;12.80;55.20;;;;;;6219052;23;20297;-89
2021/12/08 10:45:38;;;;;;;;;;;12.70;55.50;;;;;;6218610;23;19917;-89
2021/12/08 10:48:05;;;;;;;;;;;12.60;55.70;;;;;;6215012;23;19919;-89
2021/12/08 10:56:03;;;;;;;;;;;12.40;55.60;;;;;;6217968;23;20693;-89
2021/12/08 10:58:30;;;;;;;;;;;12.50;56.60;;;;;;6190809;23;19904;-90
2021/12/08 11:00:56;;;;;;;;;;;12.60;56.40;;;;;;6191641;23;19974;-89
2021/12/08 11:03:22;;;;;;;;;;;12.50;55.10;;;;;;6190172;23;19915;-89
2021/12/08 11:05:49;;;;;;;;;;;12.60;55.90;;;;;;6190862;23;20249;-89
2021/12/08 11:08:37;;;;;;;;;;;12.60;55.50;;;;;;6190369;23;20600;-89
2021/12/08 11:11:07;;;;;;;;;;;12.50;55.10;;;;;;6191280;23;20040;-89
2021/12/08 11:13:40;;;;;;;;;;;12.50;55.00;;;;;;6218320;23;19911;-89
2021/12/08 11:16:19;;;;;;;;;;;12.50;55.40;;;;;;6218160;23;19943;-89
2021/12/08 11:18:49;;;;;;;;;;;12.50;55.60;;;;;;6191895;23;19908;-89
2021/12/08 11:21:21;;;;;;;;;;;12.50;54.90;;;;;;6191313;23;19912;-88
2021/12/08 11:23:49;;;;;;;;;;;12.50;54.80;;;;;;6217802;23;20019;-89
2021/12/08 11:26:37;;;;;;;;;;;12.50;54.70;;;;;;6166353;23;19912;-89
2021/12/08 11:29:06;;;;;;;;;;;12.50;54.60;;;;;;6190697;23;19927;-89
2021/12/08 11:31:37;;;;;;;;;;;12.50;55.00;;;;;;6189735;23;19958;-89
2021/12/08 11:34:04;;;;;;;;;;;12.50;55.10;;;;;;6189527;23;19923;-89
2021/12/08 11:36:32;;;;;;;;;;;12.60;55.30;;;;;;6191342;23;20597;-89
2021/12/08 11:39:06;;;;;;;;;;;12.50;54.80;;;;;;6191091;23;19924;-89
2021/12/08 11:41:35;;;;;;;;;;;12.60;54.70;;;;;;6192141;23;19904;-89
2021/12/08 11:44:03;;;;;;;;;;;12.60;54.50;;;;;;6192088;23;19916;-89
2021/12/08 11:46:33;;;;;;;;;;;12.60;54.70;;;;;;6191911;23;19908;-89
2021/12/08 11:49:04;;;;;;;;;;;12.60;54.10;;;;;;6192276;23;19912;-89
2021/12/08 11:51:35;;;;;;;;;;;12.70;54.40;;;;;;6191242;23;20336;-88
2021/12/08 11:54:02;;;;;;;;;;;12.60;53.80;;;;;;6216312;23;19922;-89
2021/12/08 11:56:32;;;;;;;;;;;12.70;53.90;;;;;;6190965;23;20218;-88
2021/12/08 11:58:57;;;;;;;;;;;12.80;54.80;;;;;;6193220;23;19912;-89
2021/12/08 12:01:23;;;;;;;;;;;12.70;53.90;;;;;;6190869;23;19908;-89
2021/12/08 12:03:49;;;;;;;;;;;12.70;53.50;;;;;;6190764;23;19912;-89
2021/12/08 12:06:14;;;;;;;;;;;12.70;54.00;;;;;;6191113;23;19904;-89
2021/12/08 12:08:40;;;;;;;;;;;12.70;54.00;;;;;;6217607;23;19915;-89
2021/12/08 12:11:05;;;;;;;;;;;12.70;53.90;;;;;;6191037;23;19904;-88
2021/12/08 12:13:31;;;;;;;;;;;12.70;54.10;;;;;;6191783;23;20300;-89
2021/12/08 12:15:57;;;;;;;;;;;12.80;54.50;;;;;;6217857;23;19904;-89
2021/12/08 12:18:23;;;;;;;;;;;12.80;54.40;;;;;;6218295;23;19923;-88
2021/12/08 12:20:52;;;;;;;;;;;12.80;54.20;;;;;;6191533;23;19904;-89
2021/12/08 12:23:20;;;;;;;;;;;12.80;55.30;;;;;;6191486;23;19915;-89
2021/12/08 12:26:01;;;;;;;;;;;12.80;55.30;;;;;;6192553;23;19986;-88
2021/12/08 12:28:26;;;;;;;;;;;12.80;54.20;;;;;;6218195;23;20288;-89
2021/12/08 12:30:55;;;;;;;;;;;12.80;53.80;;;;;;6218575;23;19911;-89
2021/12/08 12:33:22;;;;;;;;;;;12.80;55.00;;;;;;6191409;23;19915;-88
2021/12/08 12:35:49;;;;;;;;;;;12.80;54.50;;;;;;6192156;23;19910;-89
2021/12/08 12:38:15;;;;;;;;;;;12.80;54.50;;;;;;6191493;23;19908;-89
2021/12/08 12:40:45;;;;;;;;;;;12.90;54.60;;;;;;6218645;23;20332;-89
2021/12/08 12:43:22;;;;;;;;;;;12.90;54.80;;;;;;6218738;23;19904;-88
2021/12/08 12:46:00;;;;;;;;;;;13.00;54.90;;;;;;6218541;23;19908;-89
2021/12/08 12:48:27;;;;;;;;;;;12.90;53.70;;;;;;6190640;23;20007;-89
2021/12/08 12:51:08;;;;;;;;;;;12.90;54.00;;;;;;6218670;23;19911;-90
2021/12/08 12:53:38;;;;;;;;;;;12.90;54.60;;;;;;6190962;23;19919;-89
2021/12/08 12:56:04;;;;;;;;;;;12.90;55.00;;;;;;6191110;23;19928;-89
2021/12/08 12:58:40;;;;;;;;;;;12.90;54.40;;;;;;6219176;23;20074;-89
2021/12/08 13:01:10;;;;;;;;;;;12.90;54.30;;;;;;6193381;23;20332;-90
2021/12/08 13:03:39;;;;;;;;;;;12.90;54.60;;;;;;6220694;23;20387;-89
2021/12/08 13:06:06;;;;;;;;;;;12.90;55.00;;;;;;6218805;23;19919;-89
2021/12/08 13:08:39;;;;;;;;;;;12.90;55.40;;;;;;6191947;23;20434;-90
2021/12/08 13:11:11;;;;;;;;;;;12.90;55.30;;;;;;6218812;23;19918;-89
2021/12/08 13:13:47;;;;;;;;;;;12.90;55.10;;;;;;6189604;23;20002;-90
2021/12/08 13:16:27;;;;;;;;;;;12.80;55.50;;;;;;6190364;23;19961;-89
2021/12/08 13:19:03;;;;;;;;;;;12.80;55.40;;;;;;6218556;23;20370;-89
2021/12/08 13:21:39;;;;;;;;;;;12.80;55.70;;;;;;6191083;23;19923;-89
2021/12/08 13:24:04;;;;;;;;;;;12.80;56.20;;;;;;6217426;23;19912;-89
2021/12/08 13:26:43;;;;;;;;;;;12.80;56.70;;;;;;6192606;23;19934;-89
2021/12/08 13:29:20;;;;;;;;;;;12.80;55.20;;;;;;6246534;23;19915;-89
2021/12/08 13:31:58;;;;;;;;;;;12.70;55.10;;;;;;6247207;23;19938;-89
2021/12/08 13:34:24;;;;;;;;;;;12.70;55.60;;;;;;6222056;23;19900;-89
2021/12/08 13:36:49;;;;;;;;;;;12.60;56.00;;;;;;6221346;23;19999;-90
2021/12/08 13:39:24;;;;;;;;;;;12.60;56.40;;;;;;6221492;23;20046;-90
2021/12/08 13:41:58;;;;;;;;;;;12.60;55.80;;;;;;6249269;23;19974;-90
2021/12/08 13:44:34;;;;;;;;;;;12.50;56.10;;;;;;6221923;23;19912;-91
2021/12/08 13:47:02;;;;;;;;;;;12.50;56.00;;;;;;6247540;23;19981;-89
2021/12/08 13:49:28;;;;;;;;;;;12.40;56.00;;;;;;6220694;23;19916;-90
2021/12/08 13:52:06;;;;;;;;;;;12.30;55.90;;;;;;6248027;23;19910;-89
2021/12/08 13:54:34;;;;;;;;;;;12.30;56.30;;;;;;6221340;23;20124;-89
2021/12/08 13:57:01;;;;;;;;;;;12.20;55.70;;;;;;6221249;23;19907;-89
2021/12/08 13:59:45;;;;;;;;;;;12.20;56.70;;;;;;6248462;23;19911;-90
2021/12/08 14:02:37;;;;;;;;;;;12.20;56.40;;;;;;6221400;23;20346;-89
2021/12/08 14:05:03;;;;;;;;;;;12.10;57.00;;;;;;6215385;23;19918;-90
2021/12/08 14:07:28;;;;;;;;;;;12.10;56.80;;;;;;6247167;23;19908;-89
2021/12/08 14:09:55;;;;;;;;;;;12.10;57.00;;;;;;6247789;23;19915;-89
2021/12/08 14:12:22;;;;;;;;;;;12.00;57.40;;;;;;6244239;23;19965;-89
2021/12/08 14:14:57;;;;;;;;;;;12.00;56.80;;;;;;6246232;23;19950;-90
2021/12/08 14:17:29;;;;;;;;;;;11.90;56.80;;;;;;6247418;23;20034;-90
2021/12/08 14:19:54;;;;;;;;;;;11.80;56.90;;;;;;6195431;23;20386;-89
2021/12/08 14:22:20;;;;;;;;;;;11.80;57.00;;;;;;6247256;23;19942;-89
2021/12/08 14:24:56;;;;;;;;;;;11.80;56.90;;;;;;6247188;23;19916;-89
2021/12/08 14:27:28;;;;;;;;;;;11.70;57.00;;;;;;6246552;23;20332;-90
2021/12/08 14:29:53;;;;;;;;;;;11.60;57.30;;;;;;6245619;23;20336;-89
2021/12/08 14:32:19;;;;;;;;;;;11.60;57.60;;;;;;6220734;23;19912;-89
2021/12/08 14:34:44;;;;;;;;;;;11.60;57.70;;;;;;6223723;23;20316;-89
2021/12/08 14:37:11;;;;;;;;;;;11.50;57.40;;;;;;6226770;23;19918;-89
2021/12/08 14:39:39;;;;;;;;;;;11.40;57.50;;;;;;6251955;23;19908;-89
2021/12/08 14:42:06;;;;;;;;;;;11.30;56.90;;;;;;6224975;23;19946;-89
2021/12/08 14:45:07;;;;;;;;;;;11.30;57.40;;;;;;6251062;23;19914;-89
2021/12/08 14:47:36;;;;;;;;;;;11.30;57.60;;;;;;6223968;23;19908;-89
2021/12/08 14:50:06;;;;;;;;;;;11.20;57.70;;;;;;6251447;23;20161;-89
2021/12/08 14:52:33;;;;;;;;;;;11.20;57.60;;;;;;6225761;23;19994;-89
2021/12/08 14:54:59;;;;;;;;;;;11.10;57.60;;;;;;6226032;23;20382;-89
2021/12/08 14:57:27;;;;;;;;;;;11.10;57.60;;;;;;6258666;23;19911;-89
2021/12/08 14:59:54;;;;;;;;;;;11.00;57.60;;;;;;6251093;23;19922;-90
2021/12/08 15:02:21;;;;;;;;;;;10.90;57.50;;;;;;6253195;23;19931;-90
2021/12/08 15:04:47;;;;;;;;;;;10.80;57.90;;;;;;6252369;23;19915;-89
2021/12/08 15:07:17;;;;;;;;;;;10.80;58.00;;;;;;6227877;23;19911;-89
2021/12/08 15:09:54;;;;;;;;;;;10.80;58.20;;;;;;6251384;23;19907;-89
2021/12/08 15:12:20;;;;;;;;;;;10.80;58.10;;;;;;6250957;23;19907;-90